createdAt,value
2023-09-14T00:00:24.812Z,5
2023-09-14T00:15:24.598Z,3
2023-09-14T00:30:24.724Z,3
2023-09-14T00:45:24.636Z,3
2023-09-14T01:00:23.911Z,3
2023-09-14T01:15:24.221Z,2
2023-09-14T01:30:24.699Z,0
2023-09-14T01:45:23.921Z,4
2023-09-14T02:00:24.444Z,2
2023-09-14T02:15:24.837Z,3
2023-09-14T02:30:23.963Z,4
2023-09-14T02:45:24.376Z,4
2023-09-14T03:00:23.919Z,8
2023-09-14T03:15:24.737Z,7
2023-09-14T03:30:24.330Z,8
2023-09-14T03:45:24.558Z,8
2023-09-14T04:00:24.699Z,7
2023-09-14T04:15:24.947Z,8
2023-09-14T04:30:24.692Z,6
2023-09-14T04:45:24.693Z,5
2023-09-14T05:00:24.296Z,8
2023-09-14T05:15:24.126Z,6
2023-09-14T05:30:24.433Z,10
2023-09-14T05:45:24.289Z,11
2023-09-14T06:00:24.391Z,6
2023-09-14T06:15:24.518Z,11
2023-09-14T06:30:25.055Z,20
2023-09-14T06:45:24.362Z,21
2023-09-14T07:00:24.702Z,9
2023-09-14T07:15:24.601Z,19
2023-09-14T07:30:24.002Z,17
2023-09-14T07:45:24.087Z,10
2023-09-14T08:00:23.921Z,9
2023-09-14T08:15:24.595Z,4
2023-09-14T08:30:24.648Z,7
2023-09-14T08:45:23.864Z,9
2023-09-14T09:00:23.482Z,7
2023-09-14T09:15:23.910Z,6
2023-09-14T09:30:23.854Z,5
2023-09-14T09:45:24.417Z,5
2023-09-14T10:00:24.661Z,2
2023-09-14T10:15:24.377Z,3
2023-09-14T10:30:24.228Z,6
2023-09-14T10:45:24.953Z,2
2023-09-14T11:00:26.512Z,3
2023-09-14T11:15:27.346Z,3
2023-09-14T11:30:24.944Z,5
2023-09-14T12:00:24.682Z,3
2023-09-14T12:15:26.137Z,5
2023-09-14T12:30:24.236Z,3
2023-09-14T12:45:24.117Z,6
2023-09-14T13:00:24.610Z,6
2023-09-14T13:15:23.966Z,6
2023-09-14T13:24:50.379Z,8
2023-09-14T13:31:04.616Z,7
2023-09-14T13:46:04.864Z,5
2023-09-14T14:01:05.084Z,4
2023-09-14T14:16:05.621Z,4
2023-09-14T14:31:05.643Z,2
2023-09-14T14:46:06.050Z,3
2023-09-14T15:01:05.428Z,4
2023-09-14T15:16:05.776Z,2
2023-09-14T15:31:05.406Z,5
2023-09-14T15:46:06.038Z,5
2023-09-14T16:01:05.371Z,5
2023-09-14T16:16:05.924Z,7
2023-09-14T16:31:05.376Z,6
2023-09-14T16:46:05.830Z,6
2023-09-14T17:01:05.851Z,8
2023-09-14T17:16:05.692Z,8
2023-09-14T17:31:05.719Z,10
2023-09-14T17:46:05.446Z,9
2023-09-14T18:01:05.911Z,7
2023-09-14T18:16:05.069Z,7
2023-09-14T18:31:05.326Z,7
2023-09-14T18:46:05.604Z,7
2023-09-14T19:01:05.846Z,7
2023-09-14T19:16:05.561Z,7
2023-09-14T19:31:05.861Z,8
2023-09-14T19:46:04.809Z,7
2023-09-14T20:01:05.764Z,6
2023-09-14T20:16:05.733Z,6
2023-09-14T20:31:04.931Z,6
2023-09-14T20:46:05.042Z,7
2023-09-14T21:01:05.252Z,7
2023-09-14T21:16:05.148Z,5
2023-09-14T21:31:05.739Z,6
2023-09-14T21:46:04.999Z,9
2023-09-14T22:01:05.834Z,9
2023-09-14T22:16:04.979Z,9
2023-09-14T22:31:05.849Z,7
2023-09-14T22:46:06.020Z,7
2023-09-14T23:01:06.031Z,8
2023-09-14T23:16:05.188Z,10
2023-09-14T23:31:05.873Z,9
2023-09-14T23:46:05.462Z,11
